sensor_id;sensor_type;location;lat;lon;timestamp;P1;durP1;ratioP1;P2;durP2;ratioP2
55316;SDS011;41178;48.956;8.130;2024-02-28T00:02:17;12.80;;;10.57;;
55316;SDS011;41178;48.956;8.130;2024-02-28T00:07:19;12.30;;;10.07;;
55316;SDS011;41178;48.956;8.130;2024-02-28T00:12:20;14.60;;;11.03;;
55316;SDS011;41178;48.956;8.130;2024-02-28T00:17:22;12.83;;;9.87;;
55316;SDS011;41178;48.956;8.130;2024-02-28T00:22:24;14.67;;;10.10;;
55316;SDS011;41178;48.956;8.130;2024-02-28T00:27:26;13.47;;;10.50;;
55316;SDS011;41178;48.956;8.130;2024-02-28T00:32:28;11.07;;;9.60;;
55316;SDS011;41178;48.956;8.130;2024-02-28T00:37:30;13.77;;;9.83;;
55316;SDS011;41178;48.956;8.130;2024-02-28T00:42:31;13.33;;;9.90;;
55316;SDS011;41178;48.956;8.130;2024-02-28T00:47:33;13.70;;;9.73;;
55316;SDS011;41178;48.956;8.130;2024-02-28T00:52:35;12.77;;;10.37;;
55316;SDS011;41178;48.956;8.130;2024-02-28T00:57:37;14.27;;;11.00;;
55316;SDS011;41178;48.956;8.130;2024-02-28T01:02:39;13.13;;;10.50;;
55316;SDS011;41178;48.956;8.130;2024-02-28T01:07:42;14.80;;;10.37;;
55316;SDS011;41178;48.956;8.130;2024-02-28T01:12:44;12.17;;;9.83;;
55316;SDS011;41178;48.956;8.130;2024-02-28T01:17:46;14.60;;;10.90;;
55316;SDS011;41178;48.956;8.130;2024-02-28T01:22:48;12.87;;;10.73;;
55316;SDS011;41178;48.956;8.130;2024-02-28T01:27:50;14.03;;;10.90;;
55316;SDS011;41178;48.956;8.130;2024-02-28T01:32:51;14.73;;;10.00;;
55316;SDS011;41178;48.956;8.130;2024-02-28T01:37:53;13.97;;;10.23;;
55316;SDS011;41178;48.956;8.130;2024-02-28T01:43:01;14.10;;;10.80;;
55316;SDS011;41178;48.956;8.130;2024-02-28T01:48:04;13.50;;;10.73;;
55316;SDS011;41178;48.956;8.130;2024-02-28T01:53:09;14.33;;;11.53;;
55316;SDS011;41178;48.956;8.130;2024-02-28T01:58:13;14.47;;;12.13;;
55316;SDS011;41178;48.956;8.130;2024-02-28T02:03:15;15.37;;;12.53;;
55316;SDS011;41178;48.956;8.130;2024-02-28T02:08:17;16.13;;;12.37;;
55316;SDS011;41178;48.956;8.130;2024-02-28T02:13:18;15.60;;;12.23;;
55316;SDS011;41178;48.956;8.130;2024-02-28T02:18:20;18.83;;;12.57;;
55316;SDS011;41178;48.956;8.130;2024-02-28T02:23:22;15.90;;;11.67;;
55316;SDS011;41178;48.956;8.130;2024-02-28T02:28:24;16.80;;;12.97;;
55316;SDS011;41178;48.956;8.130;2024-02-28T02:33:26;17.30;;;13.20;;
55316;SDS011;41178;48.956;8.130;2024-02-28T02:38:28;16.97;;;13.13;;
55316;SDS011;41178;48.956;8.130;2024-02-28T02:43:30;17.33;;;12.87;;
55316;SDS011;41178;48.956;8.130;2024-02-28T02:48:32;17.53;;;12.03;;
55316;SDS011;41178;48.956;8.130;2024-02-28T02:53:34;16.87;;;12.97;;
55316;SDS011;41178;48.956;8.130;2024-02-28T02:58:36;16.03;;;12.40;;
55316;SDS011;41178;48.956;8.130;2024-02-28T03:03:38;17.60;;;12.73;;
55316;SDS011;41178;48.956;8.130;2024-02-28T03:08:39;18.67;;;13.23;;
55316;SDS011;41178;48.956;8.130;2024-02-28T03:13:41;16.60;;;12.87;;
55316;SDS011;41178;48.956;8.130;2024-02-28T03:18:43;15.33;;;12.90;;
55316;SDS011;41178;48.956;8.130;2024-02-28T03:23:45;18.77;;;14.77;;
55316;SDS011;41178;48.956;8.130;2024-02-28T03:28:46;17.53;;;13.23;;
55316;SDS011;41178;48.956;8.130;2024-02-28T03:33:48;18.83;;;13.40;;
55316;SDS011;41178;48.956;8.130;2024-02-28T03:38:50;19.13;;;13.97;;
55316;SDS011;41178;48.956;8.130;2024-02-28T03:43:52;15.33;;;11.97;;
55316;SDS011;41178;48.956;8.130;2024-02-28T03:48:53;20.13;;;13.63;;
55316;SDS011;41178;48.956;8.130;2024-02-28T03:53:55;17.97;;;13.90;;
55316;SDS011;41178;48.956;8.130;2024-02-28T03:58:57;22.30;;;13.70;;
55316;SDS011;41178;48.956;8.130;2024-02-28T04:03:59;24.03;;;16.40;;
55316;SDS011;41178;48.956;8.130;2024-02-28T04:09:01;19.70;;;15.57;;
55316;SDS011;41178;48.956;8.130;2024-02-28T04:14:04;19.43;;;15.47;;
55316;SDS011;41178;48.956;8.130;2024-02-28T04:19:06;20.50;;;14.73;;
55316;SDS011;41178;48.956;8.130;2024-02-28T04:24:08;22.53;;;15.30;;
55316;SDS011;41178;48.956;8.130;2024-02-28T04:29:10;21.33;;;15.57;;
55316;SDS011;41178;48.956;8.130;2024-02-28T04:34:15;22.03;;;16.13;;
55316;SDS011;41178;48.956;8.130;2024-02-28T04:39:17;22.53;;;16.13;;
55316;SDS011;41178;48.956;8.130;2024-02-28T04:44:19;25.07;;;17.70;;
55316;SDS011;41178;48.956;8.130;2024-02-28T04:49:21;23.77;;;18.00;;
55316;SDS011;41178;48.956;8.130;2024-02-28T04:54:24;26.03;;;17.73;;
55316;SDS011;41178;48.956;8.130;2024-02-28T04:59:26;25.30;;;17.23;;
55316;SDS011;41178;48.956;8.130;2024-02-28T05:04:28;22.87;;;17.17;;
55316;SDS011;41178;48.956;8.130;2024-02-28T05:09:30;24.53;;;17.10;;
55316;SDS011;41178;48.956;8.130;2024-02-28T05:14:32;24.20;;;17.27;;
55316;SDS011;41178;48.956;8.130;2024-02-28T05:19:33;25.57;;;17.90;;
55316;SDS011;41178;48.956;8.130;2024-02-28T05:24:35;25.63;;;18.07;;
55316;SDS011;41178;48.956;8.130;2024-02-28T05:29:37;24.53;;;17.40;;
55316;SDS011;41178;48.956;8.130;2024-02-28T05:34:38;24.50;;;17.70;;
55316;SDS011;41178;48.956;8.130;2024-02-28T05:39:40;27.30;;;18.93;;
55316;SDS011;41178;48.956;8.130;2024-02-28T05:44:42;27.27;;;18.93;;
55316;SDS011;41178;48.956;8.130;2024-02-28T05:49:45;25.30;;;18.20;;
55316;SDS011;41178;48.956;8.130;2024-02-28T05:54:47;26.80;;;18.67;;
55316;SDS011;41178;48.956;8.130;2024-02-28T05:59:50;26.77;;;18.93;;
55316;SDS011;41178;48.956;8.130;2024-02-28T06:04:52;27.33;;;18.77;;
55316;SDS011;41178;48.956;8.130;2024-02-28T06:09:54;27.73;;;18.53;;
55316;SDS011;41178;48.956;8.130;2024-02-28T06:14:56;24.90;;;17.67;;
55316;SDS011;41178;48.956;8.130;2024-02-28T06:19:58;27.70;;;17.70;;
55316;SDS011;41178;48.956;8.130;2024-02-28T06:24:59;27.43;;;19.30;;
55316;SDS011;41178;48.956;8.130;2024-02-28T06:30:01;26.33;;;18.03;;
55316;SDS011;41178;48.956;8.130;2024-02-28T06:35:05;26.27;;;17.87;;
55316;SDS011;41178;48.956;8.130;2024-02-28T06:40:08;25.03;;;19.13;;
55316;SDS011;41178;48.956;8.130;2024-02-28T06:45:10;29.67;;;19.97;;
55316;SDS011;41178;48.956;8.130;2024-02-28T06:50:12;25.97;;;18.87;;
55316;SDS011;41178;48.956;8.130;2024-02-28T06:55:14;28.40;;;18.57;;
55316;SDS011;41178;48.956;8.130;2024-02-28T07:00:16;27.97;;;18.63;;
55316;SDS011;41178;48.956;8.130;2024-02-28T07:05:20;25.27;;;17.47;;
55316;SDS011;41178;48.956;8.130;2024-02-28T07:10:22;27.30;;;18.50;;
55316;SDS011;41178;48.956;8.130;2024-02-28T07:15:24;25.97;;;17.77;;
55316;SDS011;41178;48.956;8.130;2024-02-28T07:20:26;27.07;;;17.73;;
55316;SDS011;41178;48.956;8.130;2024-02-28T07:25:28;25.83;;;17.37;;
55316;SDS011;41178;48.956;8.130;2024-02-28T07:30:30;24.10;;;18.27;;
55316;SDS011;41178;48.956;8.130;2024-02-28T07:35:32;28.50;;;18.53;;
55316;SDS011;41178;48.956;8.130;2024-02-28T07:40:44;24.97;;;18.13;;
55316;SDS011;41178;48.956;8.130;2024-02-28T07:45:46;27.10;;;17.90;;
55316;SDS011;41178;48.956;8.130;2024-02-28T07:50:48;29.67;;;19.07;;
55316;SDS011;41178;48.956;8.130;2024-02-28T07:55:49;26.60;;;18.23;;
55316;SDS011;41178;48.956;8.130;2024-02-28T08:00:51;29.13;;;18.23;;
55316;SDS011;41178;48.956;8.130;2024-02-28T08:05:56;29.53;;;18.63;;
55316;SDS011;41178;48.956;8.130;2024-02-28T08:10:58;25.00;;;17.37;;
55316;SDS011;41178;48.956;8.130;2024-02-28T08:16:00;26.17;;;18.63;;
55316;SDS011;41178;48.956;8.130;2024-02-28T08:21:02;25.97;;;18.07;;
55316;SDS011;41178;48.956;8.130;2024-02-28T08:26:04;28.57;;;18.57;;
55316;SDS011;41178;48.956;8.130;2024-02-28T08:31:06;27.90;;;17.47;;
55316;SDS011;41178;48.956;8.130;2024-02-28T08:36:08;26.23;;;18.13;;
55316;SDS011;41178;48.956;8.130;2024-02-28T08:41:09;28.83;;;19.50;;
55316;SDS011;41178;48.956;8.130;2024-02-28T08:46:14;27.40;;;18.83;;
55316;SDS011;41178;48.956;8.130;2024-02-28T08:51:17;25.00;;;17.87;;
55316;SDS011;41178;48.956;8.130;2024-02-28T08:56:19;26.87;;;19.23;;
55316;SDS011;41178;48.956;8.130;2024-02-28T09:01:21;26.83;;;18.83;;
55316;SDS011;41178;48.956;8.130;2024-02-28T09:06:23;24.57;;;17.50;;
55316;SDS011;41178;48.956;8.130;2024-02-28T09:11:25;24.40;;;17.27;;
55316;SDS011;41178;48.956;8.130;2024-02-28T09:16:27;24.70;;;17.00;;
55316;SDS011;41178;48.956;8.130;2024-02-28T09:21:28;27.33;;;18.43;;
55316;SDS011;41178;48.956;8.130;2024-02-28T09:26:30;24.33;;;16.80;;
55316;SDS011;41178;48.956;8.130;2024-02-28T09:31:32;26.30;;;18.13;;
55316;SDS011;41178;48.956;8.130;2024-02-28T09:36:40;22.43;;;16.17;;
55316;SDS011;41178;48.956;8.130;2024-02-28T09:41:42;25.10;;;17.37;;
55316;SDS011;41178;48.956;8.130;2024-02-28T09:46:44;24.83;;;16.70;;
55316;SDS011;41178;48.956;8.130;2024-02-28T09:51:48;23.97;;;16.10;;
55316;SDS011;41178;48.956;8.130;2024-02-28T09:56:53;23.03;;;14.80;;
55316;SDS011;41178;48.956;8.130;2024-02-28T10:01:56;22.57;;;15.87;;
55316;SDS011;41178;48.956;8.130;2024-02-28T10:07:09;21.50;;;15.83;;
55316;SDS011;41178;48.956;8.130;2024-02-28T10:12:14;22.03;;;14.80;;
55316;SDS011;41178;48.956;8.130;2024-02-28T10:17:15;19.43;;;14.07;;
55316;SDS011;41178;48.956;8.130;2024-02-28T10:22:17;20.40;;;14.73;;
55316;SDS011;41178;48.956;8.130;2024-02-28T10:27:19;20.00;;;14.50;;
55316;SDS011;41178;48.956;8.130;2024-02-28T10:32:22;20.97;;;16.37;;
55316;SDS011;41178;48.956;8.130;2024-02-28T10:37:23;22.00;;;16.00;;
55316;SDS011;41178;48.956;8.130;2024-02-28T10:42:26;21.13;;;14.97;;
55316;SDS011;41178;48.956;8.130;2024-02-28T10:47:30;21.53;;;16.37;;
55316;SDS011;41178;48.956;8.130;2024-02-28T10:52:33;18.17;;;12.40;;
55316;SDS011;41178;48.956;8.130;2024-02-28T10:57:36;20.73;;;13.47;;
